createdAt,value
2019-06-01T00:00:10.719Z,18.46
2019-06-01T00:01:02.130Z,18.43
2019-06-01T00:02:02.115Z,18.38
2019-06-01T00:03:02.114Z,18.34
2019-06-01T00:04:02.095Z,18.34
2019-06-01T00:05:02.073Z,18.34
2019-06-01T00:06:02.055Z,18.45
2019-06-01T00:07:02.038Z,18.36
2019-06-01T00:08:02.024Z,18.31
2019-06-01T00:09:02.020Z,18.24
2019-06-01T00:10:01.995Z,18.30
2019-06-01T00:11:01.992Z,18.28
2019-06-01T00:12:01.973Z,18.18
2019-06-01T00:13:01.959Z,18.20
2019-06-01T00:14:01.942Z,18.20
2019-06-01T00:15:01.969Z,18.15
2019-06-01T00:16:01.911Z,18.13
2019-06-01T00:17:01.896Z,18.03
2019-06-01T00:18:01.884Z,18.12
2019-06-01T00:19:01.874Z,18.01
2019-06-01T00:20:01.865Z,17.97
2019-06-01T00:21:01.863Z,17.86
2019-06-01T00:22:01.831Z,17.87
2019-06-01T00:23:01.811Z,17.91
2019-06-01T00:24:01.805Z,17.90
2019-06-01T00:25:01.783Z,18.06
2019-06-01T00:26:01.769Z,18.05
2019-06-01T00:27:01.758Z,17.94
2019-06-01T00:28:01.748Z,17.86
2019-06-01T00:29:01.727Z,17.88
2019-06-01T00:30:01.712Z,17.93
2019-06-01T00:31:01.698Z,17.86
2019-06-01T00:32:01.686Z,17.81
2019-06-01T00:33:01.671Z,17.86
2019-06-01T00:34:01.655Z,17.84
2019-06-01T00:35:01.671Z,17.90
2019-06-01T00:36:01.624Z,17.86
2019-06-01T00:37:01.616Z,17.83
2019-06-01T00:38:01.597Z,17.81
2019-06-01T00:39:01.592Z,17.73
2019-06-01T00:40:01.574Z,17.72
2019-06-01T00:41:01.555Z,17.66
2019-06-01T00:42:01.539Z,17.76
2019-06-01T00:43:01.527Z,17.65
2019-06-01T00:44:01.513Z,17.71
2019-06-01T00:45:01.586Z,17.63
2019-06-01T00:46:01.484Z,17.65
2019-06-01T00:47:01.472Z,17.56
2019-06-01T00:48:01.457Z,17.50
2019-06-01T00:49:01.438Z,17.50
2019-06-01T00:50:01.428Z,17.47
2019-06-01T00:51:01.413Z,17.50
2019-06-01T00:52:01.410Z,17.46
2019-06-01T00:53:01.386Z,17.50
2019-06-01T00:54:01.366Z,17.52
2019-06-01T00:55:01.357Z,17.45
2019-06-01T00:56:01.341Z,17.32
2019-06-01T00:57:01.326Z,17.32
2019-06-01T00:58:01.308Z,17.31
2019-06-01T00:59:01.295Z,17.25
2019-06-01T01:00:01.278Z,17.27
2019-06-01T01:01:01.264Z,17.25
2019-06-01T01:02:01.263Z,17.30
2019-06-01T01:03:01.235Z,17.31
2019-06-01T01:04:01.232Z,17.28
2019-06-01T01:05:01.207Z,17.32
2019-06-01T01:06:01.196Z,17.39
2019-06-01T01:07:01.177Z,17.45
2019-06-01T01:08:01.214Z,17.45
2019-06-01T01:09:01.150Z,17.50
2019-06-01T01:10:01.144Z,17.49
2019-06-01T01:11:01.118Z,17.57
2019-06-01T01:12:01.103Z,17.49
2019-06-01T01:13:01.088Z,17.62
2019-06-01T01:14:01.076Z,17.50
2019-06-01T01:15:01.075Z,17.52
2019-06-01T01:16:01.051Z,17.49
2019-06-01T01:17:01.029Z,17.52
2019-06-01T01:18:01.019Z,17.47
2019-06-01T01:19:01.001Z,17.43
2019-06-01T01:20:00.992Z,17.45
2019-06-01T01:21:00.977Z,17.38
2019-06-01T01:22:01.008Z,17.37
2019-06-01T01:23:00.944Z,17.25
2019-06-01T01:24:00.929Z,17.19
2019-06-01T01:25:00.914Z,17.22
2019-06-01T01:26:00.898Z,17.20
2019-06-01T01:27:00.886Z,17.27
2019-06-01T01:28:00.871Z,17.24
2019-06-01T01:29:00.856Z,17.24
2019-06-01T01:30:00.860Z,17.27
2019-06-01T01:31:12.743Z,17.19
2019-06-01T01:32:00.818Z,17.17
2019-06-01T01:33:00.799Z,17.16
2019-06-01T01:34:00.782Z,17.10
2019-06-01T01:35:00.801Z,17.09
2019-06-01T01:36:00.750Z,17.20
2019-06-01T01:37:00.738Z,17.16
2019-06-01T01:38:00.728Z,17.19
2019-06-01T01:39:00.710Z,17.22
2019-06-01T01:40:00.692Z,17.24
2019-06-01T01:41:00.681Z,17.16
2019-06-01T01:42:00.674Z,17.14
2019-06-01T01:43:00.648Z,17.01
2019-06-01T01:44:00.635Z,17.10
2019-06-01T01:45:00.617Z,16.94
2019-06-01T01:46:00.606Z,16.94
2019-06-01T01:47:00.591Z,16.84
2019-06-01T01:48:01.425Z,16.65
2019-06-01T01:49:00.562Z,16.57
2019-06-01T01:50:00.542Z,16.51
2019-06-01T01:51:00.528Z,16.61
2019-06-01T01:52:01.635Z,16.51
2019-06-01T01:53:00.497Z,16.39
2019-06-01T01:54:00.497Z,16.47
2019-06-01T01:55:00.471Z,16.33
2019-06-01T01:56:01.170Z,16.42
2019-06-01T01:57:00.437Z,16.40
2019-06-01T01:58:01.640Z,16.54
2019-06-01T01:59:00.410Z,16.55
2019-06-01T02:00:01.722Z,16.54
2019-06-01T02:01:16.274Z,16.61
2019-06-01T02:02:00.364Z,16.62
2019-06-01T02:03:00.348Z,16.65
2019-06-01T02:04:00.331Z,16.61
2019-06-01T02:05:00.316Z,16.70
2019-06-01T02:06:00.302Z,16.72
2019-06-01T02:07:00.429Z,16.72
2019-06-01T02:08:01.853Z,16.70
2019-06-01T02:09:01.862Z,16.74
2019-06-01T02:10:01.777Z,16.65
2019-06-01T02:11:01.684Z,16.65
2019-06-01T02:12:00.211Z,16.62
2019-06-01T02:13:00.195Z,16.65
2019-06-01T02:14:00.180Z,16.73
2019-06-01T02:15:00.166Z,16.61
2019-06-01T02:16:00.645Z,16.73
2019-06-01T02:17:00.337Z,16.72
2019-06-01T02:18:00.669Z,16.72
2019-06-01T02:19:00.560Z,16.61
2019-06-01T02:20:00.268Z,16.62
2019-06-01T02:21:00.502Z,16.62
2019-06-01T02:22:00.706Z,16.59
2019-06-01T02:23:01.004Z,16.62
2019-06-01T02:24:01.251Z,16.57
2019-06-01T02:25:00.013Z,16.49
2019-06-01T02:26:01.171Z,16.44
2019-06-01T02:27:01.281Z,16.37
2019-06-01T02:28:01.156Z,16.33
2019-06-01T02:28:59.953Z,16.17
2019-06-01T02:29:59.948Z,16.08
2019-06-01T02:31:00.146Z,16.08
2019-06-01T02:32:01.747Z,16.06
2019-06-01T02:33:00.195Z,16.00
2019-06-01T02:34:01.503Z,15.95
2019-06-01T02:35:00.313Z,15.98
2019-06-01T02:36:00.620Z,16.00
2019-06-01T02:37:00.323Z,16.08
2019-06-01T02:38:00.364Z,16.10
2019-06-01T02:39:01.078Z,16.25
2019-06-01T02:40:00.951Z,16.24
2019-06-01T02:41:01.161Z,16.33
2019-06-01T02:42:01.251Z,16.34
2019-06-01T02:43:01.396Z,16.28
2019-06-01T02:44:01.409Z,16.09
2019-06-01T02:45:01.153Z,16.09
2019-06-01T02:46:00.461Z,16.00
2019-06-01T02:47:01.381Z,16.10
2019-06-01T02:48:01.541Z,16.18
2019-06-01T02:48:59.845Z,16.21
2019-06-01T02:49:59.631Z,16.18
2019-06-01T02:50:59.936Z,16.26
2019-06-01T02:51:59.599Z,16.33
2019-06-01T02:52:59.583Z,16.34
2019-06-01T02:53:59.652Z,16.18
2019-06-01T02:54:59.665Z,16.26
2019-06-01T02:55:59.949Z,16.32
2019-06-01T02:57:00.211Z,16.32
2019-06-01T02:58:00.209Z,16.39
2019-06-01T02:59:00.364Z,16.33
2019-06-01T03:00:00.410Z,16.29
2019-06-01T03:01:00.562Z,16.28
2019-06-01T03:02:04.831Z,16.09
2019-06-01T03:02:59.429Z,16.08
2019-06-01T03:03:59.574Z,16.00
2019-06-01T03:04:59.402Z,16.03
2019-06-01T03:05:59.382Z,16.05
2019-06-01T03:06:59.596Z,15.95
2019-06-01T03:07:59.425Z,15.91
2019-06-01T03:08:59.819Z,15.98
2019-06-01T03:10:00.637Z,15.93
2019-06-01T03:10:59.659Z,15.91
2019-06-01T03:12:00.821Z,15.90
2019-06-01T03:13:00.124Z,15.98
2019-06-01T03:14:00.330Z,15.96
2019-06-01T03:15:00.381Z,16.03
2019-06-01T03:16:00.251Z,15.98
2019-06-01T03:16:59.763Z,15.91
2019-06-01T03:17:59.454Z,16.00
2019-06-01T03:18:59.653Z,16.02
2019-06-01T03:19:59.611Z,15.95
2019-06-01T03:20:59.538Z,15.93
2019-06-01T03:21:59.628Z,15.96
2019-06-01T03:22:59.644Z,16.00
2019-06-01T03:23:59.751Z,15.87
2019-06-01T03:24:59.789Z,15.90
2019-06-01T03:25:59.871Z,15.90
2019-06-01T03:26:59.767Z,15.87
2019-06-01T03:28:00.012Z,15.91
2019-06-01T03:29:00.065Z,15.90
2019-06-01T03:30:00.248Z,15.88
2019-06-01T03:31:00.950Z,15.93
2019-06-01T03:32:22.530Z,15.95
2019-06-01T03:32:58.964Z,15.87
2019-06-01T03:33:58.957Z,15.78
2019-06-01T03:34:58.935Z,15.77
2019-06-01T03:35:58.915Z,15.90
2019-06-01T03:36:58.900Z,15.85
2019-06-01T03:37:58.891Z,15.76
2019-06-01T03:38:59.943Z,15.76
2019-06-01T03:39:58.859Z,15.72
2019-06-01T03:40:59.902Z,15.76
2019-06-01T03:41:58.822Z,15.73
2019-06-01T03:43:00.062Z,15.84
2019-06-01T03:43:58.807Z,15.83
2019-06-01T03:44:58.776Z,15.81
2019-06-01T03:45:58.761Z,15.84
2019-06-01T03:46:58.759Z,15.85
2019-06-01T03:47:58.733Z,15.95
2019-06-01T03:48:58.712Z,15.93
2019-06-01T03:49:58.698Z,15.88
2019-06-01T03:50:58.680Z,15.85
2019-06-01T03:51:58.668Z,15.91
2019-06-01T03:52:58.657Z,15.88
2019-06-01T03:53:58.650Z,15.96
2019-06-01T03:54:58.619Z,15.98
2019-06-01T03:55:58.605Z,15.83
2019-06-01T03:56:58.589Z,15.80
2019-06-01T03:57:58.575Z,15.99
2019-06-01T03:58:58.560Z,15.91
2019-06-01T03:59:58.559Z,15.98
2019-06-01T04:00:58.527Z,15.88
2019-06-01T04:01:58.510Z,16.05
2019-06-01T04:02:58.496Z,16.10
2019-06-01T04:03:58.478Z,16.14
2019-06-01T04:04:58.466Z,16.14
2019-06-01T04:05:58.450Z,16.00
2019-06-01T04:06:58.442Z,15.95
2019-06-01T04:07:58.419Z,15.90
2019-06-01T04:08:58.403Z,15.85
2019-06-01T04:09:58.391Z,15.80
2019-06-01T04:10:58.375Z,15.77
2019-06-01T04:11:58.362Z,15.77
2019-06-01T04:12:58.344Z,15.78
2019-06-01T04:13:58.335Z,15.76
2019-06-01T04:14:58.310Z,15.76
2019-06-01T04:15:58.300Z,15.73
2019-06-01T04:16:58.285Z,15.80
2019-06-01T04:17:58.262Z,15.80
2019-06-01T04:18:58.246Z,15.72
2019-06-01T04:19:58.238Z,15.69
2019-06-01T04:20:58.220Z,15.81
2019-06-01T04:21:58.201Z,15.72
2019-06-01T04:22:58.187Z,15.77
2019-06-01T04:23:58.193Z,15.81
2019-06-01T04:24:58.154Z,15.90
2019-06-01T04:25:58.144Z,15.90
2019-06-01T04:26:58.120Z,15.90
2019-06-01T04:27:58.110Z,15.93
2019-06-01T04:28:58.094Z,15.84
2019-06-01T04:29:58.083Z,15.87
2019-06-01T04:30:58.062Z,15.95
2019-06-01T04:31:58.043Z,16.05
2019-06-01T04:32:58.040Z,16.09
2019-06-01T04:33:58.011Z,16.22
2019-06-01T04:34:57.996Z,16.17
2019-06-01T04:35:57.981Z,16.28
2019-06-01T04:36:57.970Z,16.26
2019-06-01T04:37:57.954Z,16.28
2019-06-01T04:38:57.936Z,16.16
2019-06-01T04:39:57.922Z,16.22
2019-06-01T04:40:57.924Z,16.34
2019-06-01T04:41:57.890Z,16.37
2019-06-01T04:42:57.877Z,16.44
2019-06-01T04:43:57.859Z,16.55
2019-06-01T04:44:57.844Z,16.55
2019-06-01T04:45:57.833Z,16.59
2019-06-01T04:46:57.813Z,16.69
2019-06-01T04:47:57.796Z,16.67
2019-06-01T04:48:57.783Z,16.70
2019-06-01T04:49:57.773Z,16.79
2019-06-01T04:50:57.769Z,16.64
2019-06-01T04:51:57.737Z,16.70
2019-06-01T04:52:57.719Z,16.73
2019-06-01T04:53:57.707Z,16.77
2019-06-01T04:54:57.696Z,16.73
2019-06-01T04:55:57.678Z,16.73
2019-06-01T04:56:57.661Z,16.83
2019-06-01T04:57:57.644Z,16.76
2019-06-01T04:58:57.634Z,16.72
2019-06-01T04:59:57.615Z,16.73
2019-06-01T05:00:57.613Z,16.77
2019-06-01T05:01:57.587Z,16.74
2019-06-01T05:03:05.235Z,16.72
2019-06-01T05:03:57.553Z,16.80
2019-06-01T05:04:57.540Z,16.74
2019-06-01T05:05:57.526Z,16.88
2019-06-01T05:06:57.512Z,16.92
2019-06-01T05:07:57.506Z,16.83
2019-06-01T05:08:57.486Z,16.82
2019-06-01T05:09:57.466Z,16.97
2019-06-01T05:10:57.450Z,17.04
2019-06-01T05:11:57.439Z,16.92
2019-06-01T05:12:57.425Z,17.04
2019-06-01T05:13:57.406Z,17.14
2019-06-01T05:14:57.391Z,17.09
2019-06-01T05:15:57.380Z,17.20
2019-06-01T05:16:57.367Z,17.14
2019-06-01T05:17:57.376Z,17.16
2019-06-01T05:18:57.331Z,17.24
2019-06-01T05:19:57.321Z,17.32
2019-06-01T05:20:57.303Z,17.31
2019-06-01T05:21:57.290Z,17.30
2019-06-01T05:22:57.280Z,17.45
2019-06-01T05:23:57.257Z,17.45
2019-06-01T05:24:57.246Z,17.46
2019-06-01T05:25:57.229Z,17.47
2019-06-01T05:26:57.212Z,17.50
2019-06-01T05:27:57.201Z,17.50
2019-06-01T05:28:57.198Z,17.52
2019-06-01T05:29:57.172Z,17.59
2019-06-01T05:30:57.159Z,17.52
2019-06-01T05:31:57.139Z,17.49
2019-06-01T05:32:57.131Z,17.63
2019-06-01T05:33:57.218Z,17.62
2019-06-01T05:34:57.098Z,17.72
2019-06-01T05:35:57.091Z,17.69
2019-06-01T05:36:57.072Z,17.76
2019-06-01T05:37:57.056Z,17.79
2019-06-01T05:38:57.044Z,17.72
2019-06-01T05:39:57.024Z,17.87
2019-06-01T05:40:57.009Z,17.90
2019-06-01T05:41:56.995Z,18.01
2019-06-01T05:42:56.979Z,18.06
2019-06-01T05:43:56.969Z,18.03
2019-06-01T05:44:56.953Z,18.05
2019-06-01T05:45:56.938Z,18.02
2019-06-01T05:46:56.922Z,18.15
2019-06-01T05:47:56.914Z,18.15
2019-06-01T05:48:56.898Z,18.23
2019-06-01T05:49:56.880Z,18.26
2019-06-01T05:50:56.872Z,18.23
2019-06-01T05:51:56.861Z,18.30
2019-06-01T05:52:56.838Z,18.30
2019-06-01T05:53:56.823Z,18.33
2019-06-01T05:54:56.815Z,18.27
2019-06-01T05:55:56.792Z,18.39
2019-06-01T05:56:56.785Z,18.42
2019-06-01T05:57:56.769Z,18.38
2019-06-01T05:58:56.757Z,18.48
2019-06-01T05:59:56.743Z,18.45
2019-06-01T06:00:56.730Z,18.58
2019-06-01T06:01:56.710Z,18.64
2019-06-01T06:02:56.697Z,18.70
2019-06-01T06:03:56.682Z,18.76
2019-06-01T06:04:56.669Z,18.76
2019-06-01T06:05:56.656Z,18.86
2019-06-01T06:06:56.644Z,18.94
2019-06-01T06:07:56.631Z,18.94
2019-06-01T06:08:56.619Z,18.98
2019-06-01T06:09:56.613Z,18.91
2019-06-01T06:10:56.589Z,18.94
2019-06-01T06:11:56.576Z,18.91
2019-06-01T06:12:56.557Z,19.01
2019-06-01T06:13:56.548Z,19.05
2019-06-01T06:14:56.532Z,19.16
2019-06-01T06:15:56.525Z,19.16
2019-06-01T06:16:56.511Z,19.13
2019-06-01T06:17:56.508Z,19.16
2019-06-01T06:18:56.487Z,19.30
2019-06-01T06:19:56.463Z,19.30
2019-06-01T06:20:56.456Z,19.24
2019-06-01T06:21:56.441Z,19.24
2019-06-01T06:22:56.428Z,19.27
2019-06-01T06:23:56.415Z,19.27
2019-06-01T06:24:56.408Z,19.39
2019-06-01T06:25:56.388Z,19.47
2019-06-01T06:26:56.375Z,19.49
2019-06-01T06:27:56.358Z,19.38
2019-06-01T06:28:56.394Z,19.38
2019-06-01T06:29:56.332Z,19.42
2019-06-01T06:30:56.320Z,19.47
2019-06-01T06:31:56.310Z,19.45
2019-06-01T06:32:56.307Z,19.52
2019-06-01T06:33:57.236Z,19.53
2019-06-01T06:34:56.278Z,19.60
2019-06-01T06:35:56.256Z,19.70
2019-06-01T06:36:56.246Z,19.67
2019-06-01T06:37:56.229Z,19.63
2019-06-01T06:38:56.216Z,19.68
2019-06-01T06:39:56.199Z,19.78
2019-06-01T06:40:56.195Z,19.77
2019-06-01T06:41:56.177Z,19.82
2019-06-01T06:42:56.166Z,19.87
2019-06-01T06:43:56.156Z,19.94
2019-06-01T06:44:56.156Z,20.08
2019-06-01T06:45:56.154Z,20.07
2019-06-01T06:46:56.120Z,19.97
2019-06-01T06:47:56.102Z,20.09
2019-06-01T06:48:56.086Z,20.15
2019-06-01T06:49:56.080Z,20.22
2019-06-01T06:50:56.061Z,20.23
2019-06-01T06:51:56.047Z,20.25
2019-06-01T06:52:56.047Z,20.23
2019-06-01T06:53:56.032Z,20.37
2019-06-01T06:54:56.016Z,20.34
2019-06-01T06:55:56.012Z,20.34
2019-06-01T06:56:55.993Z,20.50
2019-06-01T06:57:56.029Z,20.34
2019-06-01T06:58:55.958Z,20.46
2019-06-01T06:59:55.945Z,20.50
2019-06-01T07:00:55.952Z,20.56
2019-06-01T07:01:55.942Z,20.68
2019-06-01T07:02:55.918Z,20.70
2019-06-01T07:04:09.428Z,20.73
2019-06-01T07:04:55.898Z,20.70
2019-06-01T07:05:55.879Z,20.71
2019-06-01T07:06:55.860Z,20.77
2019-06-01T07:07:55.857Z,20.82
2019-06-01T07:08:55.841Z,20.89
2019-06-01T07:09:55.834Z,20.90
2019-06-01T07:10:55.836Z,20.92
2019-06-01T07:11:55.799Z,21.03
2019-06-01T07:12:55.792Z,21.04
2019-06-01T07:13:55.801Z,21.05
2019-06-01T07:14:55.761Z,21.03
2019-06-01T07:15:55.749Z,21.08
2019-06-01T07:16:55.749Z,21.08
2019-06-01T07:17:55.722Z,21.11
2019-06-01T07:18:55.712Z,21.14
2019-06-01T07:19:55.702Z,21.26
2019-06-01T07:20:55.704Z,21.20
2019-06-01T07:21:55.678Z,21.29
2019-06-01T07:22:55.699Z,21.38
2019-06-01T07:23:55.681Z,21.43
2019-06-01T07:24:55.643Z,21.55
2019-06-01T07:25:55.625Z,21.44
2019-06-01T07:26:55.621Z,21.53
2019-06-01T07:27:55.601Z,21.63
2019-06-01T07:28:55.604Z,21.53
2019-06-01T07:29:55.579Z,21.56
2019-06-01T07:30:55.573Z,21.53
2019-06-01T07:31:55.557Z,21.62
2019-06-01T07:32:55.545Z,21.85
2019-06-01T07:33:55.545Z,21.75
2019-06-01T07:34:55.528Z,21.93
2019-06-01T07:35:55.512Z,21.91
2019-06-01T07:36:55.505Z,21.77
2019-06-01T07:37:55.489Z,21.55
2019-06-01T07:38:55.476Z,21.50
2019-06-01T07:39:55.473Z,21.55
2019-06-01T07:40:55.451Z,21.48
2019-06-01T07:41:55.453Z,21.58
2019-06-01T07:42:55.433Z,21.59
2019-06-01T07:43:55.417Z,21.58
2019-06-01T07:44:55.406Z,21.55
2019-06-01T07:45:55.394Z,21.69
2019-06-01T07:46:55.388Z,21.60
2019-06-01T07:47:55.389Z,21.75
2019-06-01T07:48:55.364Z,21.82
2019-06-01T07:49:55.355Z,21.96
2019-06-01T07:50:55.335Z,22.16
2019-06-01T07:51:55.465Z,22.15
2019-06-01T07:52:55.323Z,22.33
2019-06-01T07:53:55.309Z,22.53
2019-06-01T07:54:55.290Z,22.56
2019-06-01T07:55:55.282Z,22.61
2019-06-01T07:56:55.268Z,22.67
2019-06-01T07:57:55.259Z,22.85
2019-06-01T07:58:55.250Z,22.83
2019-06-01T07:59:55.238Z,22.98
2019-06-01T08:00:55.231Z,23.03
2019-06-01T08:01:55.265Z,23.10
2019-06-01T08:02:55.204Z,23.11
2019-06-01T08:03:55.196Z,23.15
2019-06-01T08:04:55.205Z,23.26
2019-06-01T08:05:55.172Z,23.33
2019-06-01T08:06:55.222Z,23.29
2019-06-01T08:07:55.151Z,23.10
2019-06-01T08:08:55.149Z,23.03
2019-06-01T08:09:55.133Z,23.21
2019-06-01T08:10:55.123Z,23.37
2019-06-01T08:11:55.120Z,23.36
2019-06-01T08:12:55.108Z,23.46
2019-06-01T08:13:55.099Z,23.36
2019-06-01T08:14:55.091Z,23.60
2019-06-01T08:15:55.072Z,23.69
2019-06-01T08:16:55.058Z,23.81
2019-06-01T08:17:55.049Z,24.00
2019-06-01T08:18:55.046Z,23.85
2019-06-01T08:19:55.029Z,23.96
2019-06-01T08:20:55.031Z,24.13
2019-06-01T08:21:55.016Z,24.29
2019-06-01T08:22:55.000Z,24.19
2019-06-01T08:23:54.989Z,24.16
2019-06-01T08:24:54.981Z,24.33
2019-06-01T08:25:54.975Z,24.15
2019-06-01T08:26:54.964Z,23.88
2019-06-01T08:27:54.960Z,23.98
2019-06-01T08:28:54.948Z,23.85
2019-06-01T08:29:54.941Z,23.73
2019-06-01T08:30:54.937Z,23.69
2019-06-01T08:31:55.870Z,23.79
2019-06-01T08:32:54.904Z,23.85
2019-06-01T08:33:54.903Z,23.97
2019-06-01T08:35:07.998Z,24.07
2019-06-01T08:35:54.890Z,23.94
2019-06-01T08:36:54.871Z,23.91
2019-06-01T08:37:54.859Z,23.97
2019-06-01T08:38:54.850Z,23.98
2019-06-01T08:39:58.901Z,24.03
2019-06-01T08:40:54.840Z,24.13
2019-06-01T08:41:54.830Z,24.28
2019-06-01T08:42:54.820Z,24.40
2019-06-01T08:43:54.801Z,24.53
2019-06-01T08:44:54.816Z,24.62
2019-06-01T08:45:54.791Z,24.78
2019-06-01T08:46:54.788Z,24.84
2019-06-01T08:47:54.774Z,24.91
2019-06-01T08:48:54.759Z,24.93
2019-06-01T08:49:54.754Z,25.00
2019-06-01T08:50:54.743Z,25.21
2019-06-01T08:51:54.734Z,25.27
2019-06-01T08:52:54.733Z,25.43
2019-06-01T08:53:54.732Z,25.55
2019-06-01T08:54:54.714Z,25.58
2019-06-01T08:55:54.705Z,25.75
2019-06-01T08:56:54.702Z,25.93
2019-06-01T08:57:54.698Z,26.10
2019-06-01T08:58:54.689Z,25.95
2019-06-01T08:59:54.680Z,26.19
2019-06-01T09:00:54.670Z,26.27
2019-06-01T09:01:54.668Z,26.38
2019-06-01T09:02:54.661Z,26.48
2019-06-01T09:03:54.654Z,26.64
2019-06-01T09:04:54.651Z,26.70
2019-06-01T09:05:54.648Z,26.85
2019-06-01T09:06:54.639Z,26.93
2019-06-01T09:07:54.636Z,26.94
2019-06-01T09:08:54.637Z,26.97
2019-06-01T09:09:54.629Z,26.82
2019-06-01T09:10:54.652Z,26.97
2019-06-01T09:11:54.625Z,26.93
2019-06-01T09:12:54.619Z,27.19
2019-06-01T09:13:54.615Z,26.82
2019-06-01T09:14:54.607Z,27.08
2019-06-01T09:15:54.610Z,27.38
2019-06-01T09:16:54.606Z,26.93
2019-06-01T09:17:54.597Z,27.27
2019-06-01T09:18:54.610Z,27.00
2019-06-01T09:19:54.626Z,27.20
2019-06-01T09:20:54.588Z,27.32
2019-06-01T09:21:54.589Z,27.25
2019-06-01T09:22:54.581Z,27.26
2019-06-01T09:23:54.578Z,27.42
2019-06-01T09:24:54.585Z,27.79
2019-06-01T09:25:54.578Z,27.42
2019-06-01T09:26:54.571Z,27.32
2019-06-01T09:27:54.571Z,27.47
2019-06-01T09:28:54.567Z,26.93
2019-06-01T09:29:54.562Z,27.00
2019-06-01T09:30:54.556Z,27.40
2019-06-01T09:31:54.572Z,27.17
2019-06-01T09:32:54.549Z,27.47
2019-06-01T09:33:54.555Z,27.35
2019-06-01T09:34:54.558Z,27.25
2019-06-01T09:35:56.371Z,27.40
2019-06-01T09:36:55.591Z,27.95
2019-06-01T09:37:54.537Z,28.32
2019-06-01T09:38:54.530Z,28.47
2019-06-01T09:39:54.538Z,28.43
2019-06-01T09:40:54.525Z,28.35
2019-06-01T09:41:54.520Z,28.12
2019-06-01T09:42:54.521Z,28.64
2019-06-01T09:43:54.520Z,28.37
2019-06-01T09:44:54.511Z,27.58
2019-06-01T09:45:54.509Z,27.16
2019-06-01T09:46:54.501Z,26.90
2019-06-01T09:47:54.501Z,26.78
2019-06-01T09:48:54.494Z,26.64
2019-06-01T09:49:54.488Z,26.60
2019-06-01T09:50:54.483Z,26.49
2019-06-01T09:51:54.485Z,26.53
2019-06-01T09:52:54.476Z,26.36
2019-06-01T09:53:54.472Z,26.42
2019-06-01T09:54:54.459Z,26.46
2019-06-01T09:55:54.453Z,26.49
2019-06-01T09:56:54.446Z,26.43
2019-06-01T09:57:54.437Z,26.56
2019-06-01T09:58:54.434Z,26.49
2019-06-01T09:59:54.425Z,26.61
2019-06-01T10:00:54.419Z,26.51
2019-06-01T10:01:54.417Z,26.45
2019-06-01T10:02:54.413Z,26.38
2019-06-01T10:03:54.398Z,26.31
2019-06-01T10:04:54.390Z,26.41
2019-06-01T10:06:01.813Z,26.51
2019-06-01T10:06:54.379Z,26.53
2019-06-01T10:07:54.369Z,26.57
2019-06-01T10:08:54.360Z,26.82
2019-06-01T10:09:54.354Z,26.73
2019-06-01T10:10:54.344Z,26.57
2019-06-01T10:11:54.338Z,26.52
2019-06-01T10:12:54.338Z,26.60
2019-06-01T10:13:54.322Z,26.52
2019-06-01T10:14:54.320Z,26.60
2019-06-01T10:15:54.310Z,26.60
2019-06-01T10:16:54.299Z,26.63
2019-06-01T10:17:54.297Z,26.61
2019-06-01T10:18:54.325Z,26.57
2019-06-01T10:19:54.277Z,26.60
2019-06-01T10:20:54.270Z,26.57
2019-06-01T10:21:54.264Z,26.53
2019-06-01T10:22:54.258Z,26.45
2019-06-01T10:23:54.253Z,26.45
2019-06-01T10:24:54.234Z,26.56
2019-06-01T10:25:54.239Z,26.53
2019-06-01T10:26:54.220Z,26.53
2019-06-01T10:27:54.211Z,26.48
2019-06-01T10:28:54.215Z,26.57
2019-06-01T10:29:54.194Z,26.56
2019-06-01T10:30:54.187Z,26.67
2019-06-01T10:31:54.182Z,26.67
2019-06-01T10:32:54.172Z,26.67
2019-06-01T10:33:54.160Z,26.83
2019-06-01T10:34:54.153Z,26.80
2019-06-01T10:35:54.146Z,26.80
2019-06-01T10:36:54.142Z,26.94
2019-06-01T10:37:54.130Z,26.94
2019-06-01T10:38:54.122Z,27.04
2019-06-01T10:39:54.116Z,27.00
2019-06-01T10:40:54.111Z,27.05
2019-06-01T10:41:54.095Z,27.03
2019-06-01T10:42:54.085Z,27.01
2019-06-01T10:43:54.083Z,27.15
2019-06-01T10:44:54.071Z,27.19
2019-06-01T10:45:54.062Z,27.05
2019-06-01T10:46:54.071Z,27.20
2019-06-01T10:47:54.051Z,27.12
2019-06-01T10:48:54.044Z,27.15
2019-06-01T10:49:54.031Z,27.04
2019-06-01T10:50:54.023Z,27.10
2019-06-01T10:51:54.012Z,27.16
2019-06-01T10:52:54.009Z,27.19
2019-06-01T10:53:53.999Z,27.34
2019-06-01T10:54:53.989Z,27.19
2019-06-01T10:55:53.981Z,27.19
2019-06-01T10:56:53.970Z,26.89
2019-06-01T10:57:53.966Z,26.93
2019-06-01T10:59:00.019Z,26.88
2019-06-01T10:59:53.968Z,27.00
2019-06-01T11:00:53.942Z,26.89
2019-06-01T11:01:53.942Z,26.90
2019-06-01T11:02:53.929Z,26.89
2019-06-01T11:03:53.958Z,26.89
2019-06-01T11:04:53.908Z,26.95
2019-06-01T11:05:53.898Z,26.90
2019-06-01T11:06:53.894Z,26.97
2019-06-01T11:07:53.889Z,26.88
2019-06-01T11:08:53.872Z,27.04
2019-06-01T11:09:53.869Z,27.05
2019-06-01T11:10:53.893Z,27.12
2019-06-01T11:11:53.846Z,27.12
2019-06-01T11:12:53.840Z,27.01
2019-06-01T11:13:53.830Z,27.01
2019-06-01T11:14:53.820Z,26.98
2019-06-01T11:15:53.813Z,27.00
2019-06-01T11:16:56.635Z,27.03
2019-06-01T11:17:53.796Z,26.89
2019-06-01T11:18:53.800Z,26.97
2019-06-01T11:19:53.790Z,26.98
2019-06-01T11:20:53.773Z,26.89
2019-06-01T11:21:53.766Z,26.89
2019-06-01T11:22:53.759Z,26.88
2019-06-01T11:23:53.747Z,27.07
2019-06-01T11:24:53.754Z,27.10
2019-06-01T11:25:53.741Z,27.27
2019-06-01T11:26:53.727Z,27.04
2019-06-01T11:27:53.736Z,27.16
2019-06-01T11:28:53.712Z,27.22
2019-06-01T11:29:53.702Z,27.35
2019-06-01T11:30:53.702Z,27.34
2019-06-01T11:31:53.685Z,27.41
2019-06-01T11:32:53.676Z,27.40
2019-06-01T11:33:53.669Z,27.37
2019-06-01T11:34:53.662Z,27.53
2019-06-01T11:35:53.649Z,27.58
2019-06-01T11:37:05.114Z,27.47
2019-06-01T11:37:53.635Z,27.41
2019-06-01T11:38:53.639Z,27.49
2019-06-01T11:39:53.625Z,27.42
2019-06-01T11:40:53.616Z,27.37
2019-06-01T11:41:53.599Z,27.50
2019-06-01T11:42:53.597Z,27.47
2019-06-01T11:43:53.589Z,27.50
2019-06-01T11:44:53.597Z,27.53
2019-06-01T11:45:53.569Z,27.54
2019-06-01T11:46:53.607Z,27.57
2019-06-01T11:47:53.560Z,27.63
2019-06-01T11:48:53.548Z,27.47
2019-06-01T11:49:53.546Z,27.45
2019-06-01T11:50:53.524Z,27.52
2019-06-01T11:51:53.529Z,27.58
2019-06-01T11:52:53.519Z,27.66
2019-06-01T11:53:53.507Z,27.66
2019-06-01T11:54:53.496Z,27.63
2019-06-01T11:55:53.485Z,27.72
2019-06-01T11:56:53.479Z,27.88
2019-06-01T11:57:53.484Z,27.95
2019-06-01T11:58:53.461Z,28.00
2019-06-01T11:59:53.466Z,27.98
2019-06-01T12:00:53.457Z,28.00
2019-06-01T12:01:53.448Z,28.06
2019-06-01T12:02:53.438Z,28.09
2019-06-01T12:03:53.421Z,27.97
2019-06-01T12:04:53.415Z,27.95
2019-06-01T12:05:53.409Z,28.07
2019-06-01T12:06:53.410Z,28.06
2019-06-01T12:07:53.397Z,28.12
2019-06-01T12:08:53.384Z,28.10
2019-06-01T12:09:53.383Z,27.94
2019-06-01T12:10:53.375Z,27.82
2019-06-01T12:11:53.372Z,27.78
2019-06-01T12:12:53.386Z,27.90
2019-06-01T12:13:53.341Z,27.91
2019-06-01T12:14:53.333Z,28.09
2019-06-01T12:15:53.327Z,28.07
2019-06-01T12:16:53.318Z,27.94
2019-06-01T12:17:53.309Z,27.94
2019-06-01T12:18:53.303Z,27.94
2019-06-01T12:19:53.292Z,28.07
2019-06-01T12:20:53.284Z,28.06
2019-06-01T12:21:53.281Z,28.15
2019-06-01T12:22:53.272Z,28.20
2019-06-01T12:23:53.272Z,28.20
2019-06-01T12:24:53.258Z,28.30
2019-06-01T12:25:53.247Z,28.22
2019-06-01T12:26:53.242Z,28.24
2019-06-01T12:27:53.240Z,28.38
2019-06-01T12:28:53.229Z,28.49
2019-06-01T12:29:53.219Z,28.66
2019-06-01T12:30:53.207Z,28.64
2019-06-01T12:31:53.207Z,28.65
2019-06-01T12:32:53.191Z,28.66
2019-06-01T12:33:53.188Z,28.65
2019-06-01T12:34:53.177Z,28.74
2019-06-01T12:35:53.168Z,28.66
2019-06-01T12:36:53.163Z,28.69
2019-06-01T12:38:05.537Z,28.69
2019-06-01T12:38:53.152Z,28.64
2019-06-01T12:39:54.402Z,28.68
2019-06-01T12:40:53.131Z,28.72
2019-06-01T12:41:53.182Z,28.86
2019-06-01T12:42:53.146Z,28.90
2019-06-01T12:43:53.116Z,28.94
2019-06-01T12:44:53.115Z,29.12
2019-06-01T12:46:06.596Z,28.93
2019-06-01T12:46:53.108Z,28.89
2019-06-01T12:47:57.723Z,28.87
2019-06-01T12:48:53.071Z,28.84
2019-06-01T12:49:53.068Z,28.87
2019-06-01T12:50:53.058Z,29.00
2019-06-01T12:51:53.244Z,29.02